createdAt,value
2023-04-07T00:02:08.127Z,17.88
2023-04-07T00:04:35.764Z,16.65
2023-04-07T00:07:03.162Z,17.23
2023-04-07T00:09:30.744Z,17.27
2023-04-07T00:11:57.962Z,18.05
2023-04-07T00:14:25.214Z,17.52
2023-04-07T00:16:52.496Z,17.55
2023-04-07T00:19:19.711Z,16.85
2023-04-07T00:21:47.134Z,18.52
2023-04-07T00:24:21.020Z,18.40
2023-04-07T00:26:54.638Z,17.70
2023-04-07T00:29:21.917Z,16.60
2023-04-07T00:31:49.170Z,17.23
2023-04-07T00:34:16.433Z,19.65
2023-04-07T00:36:43.698Z,18.85
2023-04-07T00:39:10.993Z,19.85
2023-04-07T00:41:38.352Z,18.45
2023-04-07T00:44:05.590Z,19.63
2023-04-07T00:46:33.029Z,18.60
2023-04-07T00:49:01.101Z,19.30
2023-04-07T00:51:28.700Z,20.65
2023-04-07T00:53:56.532Z,20.58
2023-04-07T00:56:24.100Z,24.92
2023-04-07T00:58:51.789Z,22.42
2023-04-07T01:01:27.470Z,21.55
2023-04-07T01:04:17.876Z,22.15
2023-04-07T01:06:50.202Z,18.88
2023-04-07T01:09:26.592Z,19.38
2023-04-07T01:11:56.991Z,19.25
2023-04-07T01:14:25.591Z,18.98
2023-04-07T01:17:06.275Z,19.42
2023-04-07T01:19:53.471Z,20.02
2023-04-07T01:22:26.777Z,19.77
2023-04-07T01:25:11.414Z,21.40
2023-04-07T01:28:02.215Z,20.63
2023-04-07T01:30:33.227Z,20.50
2023-04-07T01:33:02.189Z,21.38
2023-04-07T01:35:32.480Z,20.42
2023-04-07T01:38:00.607Z,21.40
2023-04-07T01:40:28.981Z,21.23
2023-04-07T01:42:58.097Z,20.98
2023-04-07T01:45:27.590Z,20.98
2023-04-07T01:47:55.931Z,20.70
2023-04-07T01:50:23.893Z,20.63
2023-04-07T01:52:52.875Z,20.45
2023-04-07T01:55:21.261Z,19.83
2023-04-07T01:57:57.698Z,20.20
2023-04-07T02:00:25.040Z,20.60
2023-04-07T02:02:59.385Z,19.17
2023-04-07T02:05:29.920Z,18.45
2023-04-07T02:08:05.132Z,19.13
2023-04-07T02:10:38.906Z,19.58
2023-04-07T02:13:09.148Z,18.25
2023-04-07T02:15:37.813Z,17.33
2023-04-07T02:18:06.471Z,18.08
2023-04-07T02:20:36.998Z,18.33
2023-04-07T02:23:04.285Z,18.17
2023-04-07T02:25:32.710Z,17.38
2023-04-07T02:28:01.575Z,15.73
2023-04-07T02:30:29.292Z,16.77
2023-04-07T02:32:57.021Z,15.80
2023-04-07T02:35:24.735Z,16.30
2023-04-07T02:37:52.089Z,16.35
2023-04-07T02:40:19.525Z,15.90
2023-04-07T02:42:47.823Z,16.15
2023-04-07T02:45:16.055Z,16.67
2023-04-07T02:47:43.420Z,17.15
2023-04-07T02:50:11.136Z,17.15
2023-04-07T02:52:38.314Z,16.75
2023-04-07T02:55:11.405Z,16.88
2023-04-07T02:57:39.585Z,17.15
2023-04-07T03:00:13.213Z,17.33
2023-04-07T03:03:10.192Z,17.48
2023-04-07T03:05:40.460Z,17.83
2023-04-07T03:08:12.283Z,18.15
2023-04-07T03:10:40.579Z,17.58
2023-04-07T03:13:09.405Z,17.90
2023-04-07T03:15:37.838Z,18.02
2023-04-07T03:18:06.890Z,18.83
2023-04-07T03:20:35.207Z,19.15
2023-04-07T03:23:09.313Z,18.25
2023-04-07T03:25:36.915Z,18.90
2023-04-07T03:28:04.601Z,17.80
2023-04-07T03:30:35.647Z,18.83
2023-04-07T03:33:03.112Z,18.60
2023-04-07T03:35:31.841Z,18.20
2023-04-07T03:37:59.421Z,18.45
2023-04-07T03:40:27.207Z,17.63
2023-04-07T03:42:54.528Z,19.25
2023-04-07T03:45:22.743Z,19.33
2023-04-07T03:47:54.309Z,17.98
2023-04-07T03:50:22.736Z,18.92
2023-04-07T03:53:09.364Z,18.05
2023-04-07T03:55:37.423Z,18.90
2023-04-07T03:58:12.390Z,17.42
2023-04-07T04:00:40.860Z,17.40
2023-04-07T04:03:11.024Z,18.73
2023-04-07T04:05:47.425Z,18.02
2023-04-07T04:08:20.783Z,16.60
2023-04-07T04:10:48.176Z,18.00
2023-04-07T04:13:15.550Z,18.42
2023-04-07T04:15:43.883Z,18.45
2023-04-07T04:18:15.632Z,18.08
2023-04-07T04:20:43.779Z,17.75
2023-04-07T04:23:11.247Z,18.95
2023-04-07T04:25:39.823Z,18.67
2023-04-07T04:28:10.560Z,19.17
2023-04-07T04:30:38.097Z,19.27
2023-04-07T04:33:05.533Z,19.75
2023-04-07T04:36:02.205Z,19.10
2023-04-07T04:38:31.298Z,18.98
2023-04-07T04:41:06.276Z,19.50
2023-04-07T04:43:34.703Z,20.58
2023-04-07T04:46:04.111Z,20.73
2023-04-07T04:48:36.269Z,19.70
2023-04-07T04:51:06.124Z,20.73
2023-04-07T04:53:33.527Z,21.02
2023-04-07T04:56:02.695Z,20.15
2023-04-07T04:58:46.203Z,23.70
2023-04-07T05:01:19.465Z,21.83
2023-04-07T05:03:55.735Z,24.63
2023-04-07T05:06:27.973Z,21.60
2023-04-07T05:08:58.501Z,22.08
2023-04-07T05:11:31.639Z,22.95
2023-04-07T05:13:59.011Z,24.70
2023-04-07T05:16:26.754Z,23.85
2023-04-07T05:18:55.036Z,22.70
2023-04-07T05:21:24.839Z,23.85
2023-04-07T05:23:54.931Z,25.50
2023-04-07T05:26:24.243Z,24.98
2023-04-07T05:28:52.010Z,23.75
2023-04-07T05:31:23.529Z,24.30
2023-04-07T05:33:54.634Z,24.48
2023-04-07T05:36:25.714Z,24.98
2023-04-07T05:38:56.581Z,24.55
2023-04-07T05:41:24.069Z,25.55
2023-04-07T05:43:51.696Z,26.55
2023-04-07T05:46:19.470Z,28.15
2023-04-07T05:48:55.857Z,28.15
2023-04-07T05:51:24.311Z,29.30
2023-04-07T05:53:53.956Z,27.52
2023-04-07T05:56:23.530Z,27.00
2023-04-07T05:58:51.372Z,28.20
2023-04-07T06:01:19.756Z,27.30
2023-04-07T06:03:48.675Z,25.38
2023-04-07T06:06:21.954Z,22.05
2023-04-07T06:08:49.434Z,25.50
2023-04-07T06:11:16.681Z,25.60
2023-04-07T06:13:43.815Z,26.00
2023-04-07T06:16:11.196Z,26.15
2023-04-07T06:18:38.614Z,26.52
2023-04-07T06:21:07.459Z,26.23
2023-04-07T06:23:34.879Z,24.92
2023-04-07T06:26:02.368Z,25.60
2023-04-07T06:28:30.933Z,26.17
2023-04-07T06:31:00.566Z,26.58
2023-04-07T06:33:28.646Z,25.85
2023-04-07T06:35:57.606Z,25.70
2023-04-07T06:38:24.870Z,25.55
2023-04-07T06:40:52.143Z,26.20
2023-04-07T06:43:19.662Z,25.50
2023-04-07T06:46:07.905Z,26.05
2023-04-07T06:48:35.453Z,24.83
2023-04-07T06:51:02.608Z,25.27
2023-04-07T06:53:29.732Z,25.40
2023-04-07T06:56:04.946Z,25.23
2023-04-07T06:58:32.491Z,27.38
2023-04-07T07:01:01.316Z,26.52
2023-04-07T07:03:29.650Z,25.65
2023-04-07T07:05:57.700Z,26.63
2023-04-07T07:08:25.999Z,27.90
2023-04-07T07:10:54.036Z,27.90
2023-04-07T07:13:23.652Z,28.63
2023-04-07T07:15:51.624Z,28.13
2023-04-07T07:18:19.698Z,29.00
2023-04-07T07:20:47.139Z,28.05
2023-04-07T07:23:14.350Z,28.55
2023-04-07T07:25:41.788Z,27.65
2023-04-07T07:28:09.769Z,28.42
2023-04-07T07:30:39.303Z,29.63
2023-04-07T07:33:06.547Z,28.30
2023-04-07T07:35:33.922Z,27.73
2023-04-07T07:38:01.507Z,29.35
2023-04-07T07:40:28.816Z,27.17
2023-04-07T07:42:56.056Z,27.90
2023-04-07T07:45:23.387Z,27.48
2023-04-07T07:47:50.767Z,27.60
2023-04-07T07:50:18.103Z,26.67
2023-04-07T07:52:45.959Z,26.27
2023-04-07T07:55:13.346Z,25.50
2023-04-07T07:57:40.797Z,24.13
2023-04-07T08:00:08.631Z,25.20
2023-04-07T08:02:42.602Z,25.02
2023-04-07T08:05:18.948Z,24.35
2023-04-07T08:07:47.083Z,25.88
2023-04-07T08:10:16.608Z,25.95
2023-04-07T08:12:43.860Z,25.80
2023-04-07T08:15:11.364Z,25.45
2023-04-07T08:17:38.755Z,24.80
2023-04-07T08:20:07.956Z,26.13
2023-04-07T08:22:35.309Z,26.77
2023-04-07T08:25:03.158Z,25.50
2023-04-07T08:27:30.533Z,25.98
2023-04-07T08:30:04.046Z,26.35
2023-04-07T08:32:39.350Z,28.58
2023-04-07T08:35:07.214Z,28.00
2023-04-07T08:37:35.480Z,28.15
2023-04-07T08:40:04.118Z,28.88
2023-04-07T08:42:33.458Z,28.10
2023-04-07T08:45:07.342Z,27.88
2023-04-07T08:47:36.742Z,27.30
2023-04-07T08:50:09.626Z,26.70
2023-04-07T08:52:57.540Z,29.17
2023-04-07T08:55:28.283Z,28.92
2023-04-07T08:57:56.332Z,28.92
2023-04-07T09:00:30.001Z,27.02
2023-04-07T09:02:57.412Z,28.42
2023-04-07T09:05:25.358Z,28.58
2023-04-07T09:07:52.556Z,28.17
2023-04-07T09:10:19.822Z,28.75
2023-04-07T09:12:47.220Z,28.65
2023-04-07T09:15:14.596Z,28.92
2023-04-07T09:17:42.384Z,29.15
2023-04-07T09:20:10.008Z,28.88
2023-04-07T09:22:48.129Z,28.65
2023-04-07T09:25:34.053Z,28.75
2023-04-07T09:28:05.653Z,28.17
2023-04-07T09:30:35.421Z,28.02
2023-04-07T09:33:04.933Z,27.52
2023-04-07T09:35:35.524Z,27.73
2023-04-07T09:38:03.865Z,25.65
2023-04-07T09:40:31.774Z,26.60
2023-04-07T09:42:59.294Z,26.63
2023-04-07T09:45:34.650Z,25.95
2023-04-07T09:48:19.265Z,24.17
2023-04-07T09:50:49.854Z,35.42
2023-04-07T09:53:20.251Z,24.88
2023-04-07T09:55:48.612Z,24.55
2023-04-07T09:58:16.927Z,23.63
2023-04-07T10:00:45.864Z,23.70
2023-04-07T10:03:14.158Z,22.58
2023-04-07T10:05:42.672Z,23.05
2023-04-07T10:08:10.417Z,22.48
2023-04-07T10:10:43.135Z,24.08
2023-04-07T10:13:10.602Z,22.83
2023-04-07T10:15:38.128Z,22.85
2023-04-07T10:18:07.544Z,24.25
2023-04-07T10:20:37.171Z,24.27
2023-04-07T10:23:32.943Z,23.02
2023-04-07T10:26:01.332Z,24.98
2023-04-07T10:28:30.819Z,24.65
2023-04-07T10:30:59.044Z,25.15
2023-04-07T10:33:47.502Z,23.27
2023-04-07T10:36:15.919Z,23.15
2023-04-07T10:39:03.164Z,23.13
2023-04-07T10:41:37.837Z,22.63
2023-04-07T10:44:06.840Z,22.27
2023-04-07T10:46:57.190Z,21.08
2023-04-07T10:49:24.404Z,21.45
2023-04-07T10:52:13.697Z,21.40
2023-04-07T10:54:42.882Z,21.88
2023-04-07T10:57:14.666Z,20.88
2023-04-07T11:00:12.449Z,21.35
2023-04-07T11:02:40.722Z,20.23
2023-04-07T11:05:08.988Z,21.75
2023-04-07T11:07:47.351Z,21.33
2023-04-07T11:10:16.448Z,21.23
2023-04-07T11:12:43.995Z,22.30
2023-04-07T11:15:22.164Z,21.40
2023-04-07T11:18:18.359Z,18.75
2023-04-07T11:20:51.721Z,18.80
2023-04-07T11:23:21.210Z,19.17
2023-04-07T11:25:49.920Z,18.02
2023-04-07T11:28:17.896Z,20.30
2023-04-07T11:30:56.331Z,18.63
2023-04-07T11:33:26.642Z,19.98
2023-04-07T11:36:01.116Z,20.52
2023-04-07T11:38:38.838Z,18.73
2023-04-07T11:41:15.643Z,19.77
2023-04-07T11:43:43.039Z,19.92
2023-04-07T11:46:16.985Z,20.00
2023-04-07T11:48:45.677Z,15.43
2023-04-07T11:51:22.785Z,19.60
2023-04-07T11:53:57.007Z,17.88
2023-04-07T11:58:53.259Z,18.05
2023-04-07T12:01:21.210Z,16.10
2023-04-07T12:04:00.230Z,17.73
2023-04-07T12:06:35.142Z,17.83
2023-04-07T12:09:03.590Z,18.83
2023-04-07T12:11:31.964Z,17.55
2023-04-07T12:13:59.771Z,18.75
2023-04-07T12:16:27.118Z,16.60
2023-04-07T12:18:54.607Z,19.27
2023-04-07T12:21:21.853Z,18.55
2023-04-07T12:23:49.415Z,20.38
2023-04-07T12:26:16.930Z,18.20
2023-04-07T12:28:44.264Z,17.73
2023-04-07T12:31:11.528Z,19.83
2023-04-07T12:33:38.762Z,18.02
2023-04-07T12:36:06.717Z,20.77
2023-04-07T12:38:34.045Z,18.77
2023-04-07T12:41:03.728Z,18.23
2023-04-07T12:43:31.623Z,15.88
2023-04-07T12:45:58.855Z,16.95
2023-04-07T12:48:27.625Z,18.15
2023-04-07T12:50:55.448Z,17.77
2023-04-07T12:53:22.975Z,17.25
2023-04-07T12:55:50.741Z,18.52
2023-04-07T12:58:19.206Z,18.40
2023-04-07T13:00:49.730Z,18.58
2023-04-07T13:03:17.725Z,17.00
2023-04-07T13:05:45.375Z,16.88
2023-04-07T13:08:12.805Z,17.52
2023-04-07T13:10:40.065Z,17.55
2023-04-07T13:13:07.338Z,18.08
2023-04-07T13:15:34.822Z,18.60
2023-04-07T13:18:02.228Z,18.20
2023-04-07T13:20:30.565Z,18.20
2023-04-07T13:23:07.582Z,19.83
2023-04-07T13:25:37.601Z,20.00
2023-04-07T13:28:05.934Z,17.77
2023-04-07T13:30:33.552Z,18.83
2023-04-07T13:33:01.152Z,19.15
2023-04-07T13:35:30.376Z,21.02
2023-04-07T13:37:57.603Z,20.65
2023-04-07T13:40:24.829Z,19.98
2023-04-07T13:42:52.105Z,19.90
2023-04-07T13:45:19.518Z,20.58
2023-04-07T13:47:47.170Z,20.90
2023-04-07T13:50:14.692Z,19.60
2023-04-07T13:52:41.912Z,19.02
2023-04-07T13:55:09.605Z,21.08
2023-04-07T13:57:36.863Z,18.80
2023-04-07T14:00:04.824Z,20.77
2023-04-07T14:02:36.513Z,20.08
2023-04-07T14:05:04.152Z,22.70
2023-04-07T14:07:31.366Z,19.60
2023-04-07T14:09:58.904Z,20.15
2023-04-07T14:12:26.556Z,20.10
2023-04-07T14:14:54.915Z,19.20
2023-04-07T14:17:22.115Z,21.45
2023-04-07T14:19:49.353Z,19.52
2023-04-07T14:22:16.628Z,20.58
2023-04-07T14:24:43.975Z,18.58
2023-04-07T14:27:11.249Z,18.27
2023-04-07T14:29:38.396Z,20.20
2023-04-07T14:32:05.555Z,19.77
2023-04-07T14:34:32.980Z,19.58
2023-04-07T14:37:00.360Z,18.35
2023-04-07T14:39:27.677Z,21.65
2023-04-07T14:41:54.955Z,21.65
2023-04-07T14:44:22.346Z,18.27
2023-04-07T14:46:49.640Z,17.73
2023-04-07T14:49:17.052Z,16.63
2023-04-07T14:51:44.787Z,16.15
2023-04-07T14:54:12.438Z,16.55
2023-04-07T14:56:39.804Z,17.30
2023-04-07T14:59:07.094Z,16.35
2023-04-07T15:01:34.380Z,15.82
2023-04-07T15:04:02.016Z,15.90
2023-04-07T15:06:29.324Z,17.50
2023-04-07T15:08:56.528Z,16.85
2023-04-07T15:11:24.068Z,18.27
2023-04-07T15:13:51.515Z,17.90
2023-04-07T15:16:18.930Z,17.83
2023-04-07T15:18:47.380Z,20.40
2023-04-07T15:21:15.722Z,20.00
2023-04-07T15:23:43.092Z,19.98
2023-04-07T15:26:10.892Z,17.70
2023-04-07T15:28:38.582Z,18.20
2023-04-07T15:31:09.958Z,17.48
2023-04-07T15:33:38.830Z,16.48
2023-04-07T15:36:08.426Z,17.10
2023-04-07T15:38:36.368Z,17.42
2023-04-07T15:41:03.536Z,18.55
2023-04-07T15:43:30.806Z,18.30
2023-04-07T15:45:58.059Z,23.73
2023-04-07T15:48:25.539Z,19.13
2023-04-07T15:50:54.001Z,17.35
2023-04-07T15:53:21.353Z,17.80
2023-04-07T15:55:48.511Z,19.48
2023-04-07T15:58:15.746Z,20.08
2023-04-07T16:00:43.561Z,19.40
2023-04-07T16:03:10.978Z,19.15
2023-04-07T16:05:38.874Z,18.13
2023-04-07T16:08:06.373Z,20.17
2023-04-07T16:10:33.948Z,18.25
2023-04-07T16:13:01.234Z,17.17
2023-04-07T16:15:39.437Z,16.52
2023-04-07T16:18:10.146Z,17.50
2023-04-07T16:20:37.433Z,16.70
2023-04-07T16:23:04.617Z,14.48
2023-04-07T16:25:32.161Z,15.35
2023-04-07T16:27:59.380Z,16.70
2023-04-07T16:30:26.633Z,14.25
2023-04-07T16:32:53.935Z,15.98
2023-04-07T16:35:21.306Z,17.05
2023-04-07T16:37:50.168Z,16.67
2023-04-07T16:40:17.499Z,26.02
2023-04-07T16:42:44.794Z,21.63
2023-04-07T16:45:12.015Z,23.83
2023-04-07T16:47:39.518Z,25.23
2023-04-07T16:50:07.477Z,23.92
2023-04-07T16:52:34.722Z,22.48
2023-04-07T16:55:02.129Z,19.45
2023-04-07T16:57:30.444Z,19.45
2023-04-07T16:59:57.627Z,18.13
2023-04-07T17:02:25.418Z,18.00
2023-04-07T17:04:53.884Z,20.77
2023-04-07T17:07:21.165Z,19.20
2023-04-07T17:09:48.444Z,20.27
2023-04-07T17:12:16.393Z,20.90
2023-04-07T17:14:43.660Z,18.02
2023-04-07T17:17:11.018Z,19.17
2023-04-07T17:19:38.295Z,20.35
2023-04-07T17:22:05.457Z,18.60
2023-04-07T17:24:32.684Z,19.42
2023-04-07T17:26:59.848Z,20.13
2023-04-07T17:29:29.203Z,37.80
2023-04-07T17:31:56.854Z,27.83
2023-04-07T17:34:24.098Z,21.92
2023-04-07T17:36:51.762Z,22.52
2023-04-07T17:39:19.203Z,22.70
2023-04-07T17:41:47.697Z,25.52
2023-04-07T17:44:15.724Z,26.75
2023-04-07T17:46:43.254Z,26.05
2023-04-07T17:49:10.610Z,28.00
2023-04-07T17:51:37.931Z,24.40
2023-04-07T17:54:05.246Z,25.75
2023-04-07T17:56:32.885Z,26.20
2023-04-07T17:59:01.296Z,29.70
2023-04-07T18:01:28.598Z,28.25
2023-04-07T18:03:55.965Z,31.52
2023-04-07T18:06:23.535Z,26.73
2023-04-07T18:08:50.881Z,31.92
2023-04-07T18:11:18.807Z,30.67
2023-04-07T18:13:46.340Z,29.90
2023-04-07T18:16:19.268Z,31.95
2023-04-07T18:18:48.867Z,26.50
2023-04-07T18:21:16.302Z,26.85
2023-04-07T18:23:43.548Z,23.92
2023-04-07T18:26:12.437Z,23.95
2023-04-07T18:28:42.878Z,25.13
2023-04-07T18:31:11.083Z,26.52
2023-04-07T18:33:38.472Z,29.25
2023-04-07T18:36:08.011Z,30.80
2023-04-07T18:38:36.489Z,29.70
2023-04-07T18:41:06.159Z,34.40
2023-04-07T18:43:33.520Z,36.00
2023-04-07T18:46:00.997Z,35.85
2023-04-07T18:48:28.602Z,39.35
2023-04-07T18:50:56.651Z,39.17
2023-04-07T18:53:26.015Z,39.13
2023-04-07T18:55:53.415Z,45.80
2023-04-07T18:58:21.101Z,39.72
2023-04-07T19:00:53.465Z,37.75
2023-04-07T19:03:21.796Z,33.38
2023-04-07T19:05:52.279Z,38.95
2023-04-07T19:08:20.038Z,36.15
2023-04-07T19:10:47.773Z,37.60
2023-04-07T19:13:17.888Z,39.10
2023-04-07T19:15:46.561Z,36.97
2023-04-07T19:18:14.017Z,36.15
2023-04-07T19:20:41.412Z,36.30
2023-04-07T19:23:08.956Z,32.45
2023-04-07T19:25:36.225Z,31.13
2023-04-07T19:28:03.561Z,33.75
2023-04-07T19:30:30.982Z,32.65
2023-04-07T19:32:58.269Z,36.05
2023-04-07T19:35:25.704Z,35.10
2023-04-07T19:37:53.739Z,39.72
2023-04-07T19:40:23.677Z,39.92
2023-04-07T19:42:51.110Z,43.35
2023-04-07T19:45:19.034Z,42.08
2023-04-07T19:47:47.265Z,42.90
2023-04-07T19:50:14.699Z,40.40
2023-04-07T19:52:45.286Z,38.75
2023-04-07T19:55:13.565Z,42.70
2023-04-07T19:57:41.245Z,36.80
2023-04-07T20:00:09.268Z,40.50
2023-04-07T20:02:37.500Z,42.78
2023-04-07T20:05:05.277Z,44.10
2023-04-07T20:07:33.515Z,41.60
2023-04-07T20:10:01.246Z,42.38
2023-04-07T20:12:28.491Z,47.95
2023-04-07T20:14:55.935Z,43.92
2023-04-07T20:17:23.656Z,47.13
2023-04-07T20:19:54.578Z,43.42
2023-04-07T20:22:22.923Z,44.75
2023-04-07T20:24:50.153Z,43.65
2023-04-07T20:27:18.382Z,47.03
2023-04-07T20:29:45.666Z,44.30
2023-04-07T20:32:13.008Z,40.33
2023-04-07T20:34:40.323Z,37.40
2023-04-07T20:37:07.611Z,35.55
2023-04-07T20:39:34.863Z,36.30
2023-04-07T20:42:03.156Z,34.95
2023-04-07T20:44:31.457Z,34.33
2023-04-07T20:46:58.681Z,31.75
2023-04-07T20:49:25.904Z,31.55
2023-04-07T20:51:53.126Z,31.10
2023-04-07T20:54:20.471Z,29.75
2023-04-07T20:56:47.779Z,30.77
2023-04-07T20:59:15.106Z,32.00
2023-04-07T21:01:42.335Z,28.80
2023-04-07T21:04:13.064Z,32.05
2023-04-07T21:06:42.153Z,31.17
2023-04-07T21:09:09.901Z,32.35
2023-04-07T21:11:37.325Z,31.60
2023-04-07T21:14:05.355Z,33.05
2023-04-07T21:16:32.609Z,34.20
2023-04-07T21:18:59.825Z,36.13
2023-04-07T21:21:27.719Z,41.90
2023-04-07T21:23:54.888Z,36.45
2023-04-07T21:26:22.317Z,41.20
2023-04-07T21:28:50.962Z,49.55
2023-04-07T21:31:24.517Z,36.83
2023-04-07T21:33:52.872Z,40.55
2023-04-07T21:36:20.133Z,39.38
2023-04-07T21:38:48.042Z,32.78
2023-04-07T21:41:15.561Z,34.10
2023-04-07T21:43:42.797Z,30.88
2023-04-07T21:46:10.143Z,30.80
2023-04-07T21:48:37.476Z,32.60
2023-04-07T21:51:04.786Z,34.45
2023-04-07T21:53:32.432Z,32.90
2023-04-07T21:55:59.689Z,34.45
2023-04-07T21:58:26.885Z,33.38
2023-04-07T22:00:54.291Z,33.13
2023-04-07T22:03:22.286Z,34.60
2023-04-07T22:05:50.033Z,31.92
2023-04-07T22:08:17.535Z,30.88
2023-04-07T22:10:44.809Z,30.67
2023-04-07T22:13:12.013Z,31.20
2023-04-07T22:15:39.215Z,29.75
2023-04-07T22:18:07.074Z,32.65
2023-04-07T22:20:34.339Z,30.90
2023-04-07T22:23:01.462Z,33.10
2023-04-07T22:25:28.710Z,31.63
2023-04-07T22:27:56.938Z,31.63
2023-04-07T22:30:24.670Z,31.08
2023-04-07T22:32:52.205Z,33.35
2023-04-07T22:35:19.690Z,33.63
2023-04-07T22:37:46.978Z,32.00
2023-04-07T22:40:14.203Z,32.22
2023-04-07T22:42:41.476Z,31.75
2023-04-07T22:45:09.404Z,33.15
2023-04-07T22:47:38.561Z,33.55
2023-04-07T22:50:06.676Z,34.78
2023-04-07T22:52:33.820Z,35.20
2023-04-07T22:55:01.124Z,34.85
2023-04-07T22:57:28.524Z,36.45
2023-04-07T22:59:55.735Z,34.53
2023-04-07T23:02:23.116Z,36.72
2023-04-07T23:04:51.165Z,36.60
2023-04-07T23:07:18.611Z,39.33
2023-04-07T23:09:46.354Z,38.08
2023-04-07T23:12:13.608Z,38.70
2023-04-07T23:14:40.927Z,38.00
2023-04-07T23:17:08.579Z,38.28
2023-04-07T23:19:35.844Z,39.60
2023-04-07T23:22:03.009Z,38.90
2023-04-07T23:24:30.377Z,38.22
2023-04-07T23:26:57.727Z,38.97
2023-04-07T23:29:25.136Z,39.38
2023-04-07T23:31:52.924Z,37.08
2023-04-07T23:34:20.983Z,40.05
2023-04-07T23:36:48.272Z,38.97
2023-04-07T23:39:15.544Z,37.88
2023-04-07T23:41:42.731Z,37.67
2023-04-07T23:44:09.985Z,39.92
2023-04-07T23:46:37.169Z,39.78
2023-04-07T23:49:04.374Z,37.47
2023-04-07T23:51:32.714Z,37.90
2023-04-07T23:53:59.953Z,38.70
2023-04-07T23:56:29.004Z,40.63
2023-04-07T23:58:56.260Z,41.20
